Time;durP1;ratioP1;P1;durP2;ratioP2;P2;SDS_P1;SDS_P2;PMS_P1;PMS_P2;Temp;Humidity;BMP_temperature;BMP_pressure;BME280_temperature;BME280_humidity;BME280_pressure;Samples;Min_cycle;Max_cycle;Signal;HPM_P1;HPM_P2
2022/07/02 00:01:19;;;;;;;23.40;12.00;;;;;;;23.96;49.25;98918.70;105935;1277;97887;-71
2022/07/02 00:03:56;;;;;;;25.40;12.80;;;;;;;23.88;49.42;98923.59;105944;1277;110468;-72
2022/07/02 00:06:31;;;;;;;23.90;13.50;;;;;;;23.80;49.80;98933.92;106007;1278;97867;-73
2022/07/02 00:09:01;;;;;;;26.40;13.00;;;;;;;23.72;50.28;98943.69;105909;1277;107663;-72
2022/07/02 00:11:31;;;;;;;21.80;12.90;;;;;;;23.63;50.23;98947.86;105897;1277;97898;-72
2022/07/02 00:14:00;;;;;;;24.70;14.20;;;;;;;23.56;51.32;98962.05;105990;1277;97956;-72
2022/07/02 00:16:30;;;;;;;26.00;15.40;;;;;;;23.48;51.28;98971.91;105877;1277;111528;-72
2022/07/02 00:19:00;;;;;;;29.50;14.80;;;;;;;23.43;51.19;98982.64;105907;1277;97851;-74
2022/07/02 00:21:28;;;;;;;25.40;15.70;;;;;;;23.41;51.36;98993.61;105976;1277;107829;-72
2022/07/02 00:23:57;;;;;;;24.80;16.00;;;;;;;23.35;52.31;98984.80;105996;1277;97992;-73
2022/07/02 00:26:33;;;;;;;27.90;15.70;;;;;;;23.26;52.01;98992.23;105997;1277;97960;-73
2022/07/02 00:29:41;;;;;;;28.10;16.30;;;;;;;23.19;52.45;98995.24;105919;1277;110385;-73
2022/07/02 00:32:10;;;;;;;27.40;15.30;;;;;;;23.11;52.64;98983.02;105617;1277;98237;-73
2022/07/02 00:34:39;;;;;;;27.00;16.50;;;;;;;23.08;52.70;98976.07;105879;1277;107704;-74
2022/07/02 00:37:11;;;;;;;28.20;15.90;;;;;;;23.07;53.30;98981.40;105841;1277;97807;-75
2022/07/02 00:39:41;;;;;;;33.10;16.00;;;;;;;23.03;52.90;98986.05;105972;1277;95186;-74
2022/07/02 00:42:11;;;;;;;24.30;15.80;;;;;;;23.01;53.41;98985.73;105970;1277;111476;-74
2022/07/02 00:44:39;;;;;;;23.80;16.60;;;;;;;22.98;52.96;98982.88;105924;1278;97929;-73
2022/07/02 00:47:10;;;;;;;25.40;16.40;;;;;;;22.95;53.44;98981.13;105875;1279;107796;-73
2022/07/02 00:49:38;;;;;;;23.80;15.10;;;;;;;22.92;53.68;98986.95;105992;1277;95336;-73
2022/07/02 00:52:09;;;;;;;27.00;16.10;;;;;;;22.85;53.62;98982.53;106033;1277;97823;-74
2022/07/02 00:54:37;;;;;;;25.50;16.80;;;;;;;22.83;54.00;98991.85;106027;1277;111087;-74
2022/07/02 00:57:08;;;;;;;25.70;17.40;;;;;;;22.84;54.02;99002.51;105863;1277;95307;-72
2022/07/02 00:59:38;;;;;;;23.20;16.30;;;;;;;22.80;53.91;99006.70;105870;1278;107912;-72
2022/07/02 01:02:10;;;;;;;28.00;16.60;;;;;;;22.78;53.93;99007.88;105868;1278;98571;-73
2022/07/02 01:04:43;;;;;;;24.40;15.70;;;;;;;22.78;54.31;99017.39;106069;1277;97967;-73
2022/07/02 01:07:13;;;;;;;;;;;;;;;22.73;54.55;99021.76;106077;1277;111290;-70
2022/07/02 01:12:38;;;;;;;26.80;16.80;;;;;;;22.65;54.39;99023.16;105965;1277;107829;-72
2022/07/02 01:15:06;;;;;;;24.70;15.00;;;;;;;22.65;54.58;99027.33;106025;1278;97027;-72
2022/07/02 01:17:34;;;;;;;25.50;15.80;;;;;;;22.66;54.83;99034.23;105850;1277;95287;-72
2022/07/02 01:20:04;;;;;;;24.10;15.40;;;;;;;22.63;55.04;99033.15;105873;1278;113150;-71
2022/07/02 01:22:38;;;;;;;24.90;14.50;;;;;;;22.63;54.73;99031.56;105895;1277;97898;-71
2022/07/02 01:25:08;;;;;;;20.50;13.60;;;;;;;22.63;55.18;99033.85;105917;1277;107598;-72
2022/07/02 01:27:36;;;;;;;19.90;12.40;;;;;;;22.61;55.14;99045.31;106010;1277;97921;-73
2022/07/02 01:30:05;;;;;;;20.90;12.50;;;;;;;22.61;55.12;99058.73;106004;1277;98013;-72
2022/07/02 01:32:34;;;;;;;25.20;12.00;;;;;;;22.60;55.28;99069.49;105871;1278;109419;-74
2022/07/02 01:35:08;;;;;;;21.90;12.40;;;;;;;22.58;55.53;99074.19;105871;1277;97896;-74
2022/07/02 01:37:42;;;;;;;20.60;11.40;;;;;;;22.58;55.37;99073.01;105978;1277;107813;-74
2022/07/02 01:40:11;;;;;;;19.50;12.40;;;;;;;22.58;55.48;99069.38;105913;1277;95205;-73
2022/07/02 01:42:40;;;;;;;18.90;11.20;;;;;;;22.60;55.60;99072.58;105883;1277;97913;-72
2022/07/02 01:45:08;;;;;;;18.30;11.00;;;;;;;22.61;55.82;99076.05;106004;1277;111411;-73
2022/07/02 01:47:36;;;;;;;20.30;11.20;;;;;;;22.59;56.13;99063.40;106047;1277;97892;-73
2022/07/02 01:50:07;;;;;;;20.70;10.80;;;;;;;22.61;56.03;99064.09;105878;1279;107655;-73
2022/07/02 01:52:35;;;;;;;18.40;10.20;;;;;;;22.62;55.89;99074.64;105974;1277;97975;-72
2022/07/02 01:55:03;;;;;;;19.80;11.40;;;;;;;22.63;55.95;99085.82;105911;1277;97968;-72
2022/07/02 01:57:35;;;;;;;41.60;29.30;;;;;;;22.62;56.55;99095.66;105875;1277;111432;-72
2022/07/02 02:00:12;;;;;;;22.20;13.00;;;;;;;22.64;56.55;99109.64;105799;1279;97869;-72
2022/07/02 02:02:40;;;;;;;20.40;12.00;;;;;;;22.66;56.57;99125.81;105905;1277;107546;-72
2022/07/02 02:05:08;;;;;;;22.80;12.20;;;;;;;22.66;56.40;99139.45;105897;1277;99135;-72
2022/07/02 02:07:38;;;;;;;17.20;9.60;;;;;;;22.65;56.42;99150.61;105884;1277;95727;-72
2022/07/02 02:10:06;;;;;;;20.70;11.80;;;;;;;22.62;56.77;99155.80;105922;1278;111479;-72
2022/07/02 02:12:34;;;;;;;19.20;12.30;;;;;;;22.58;56.58;99162.02;105949;1278;96566;-71
2022/07/02 02:15:04;;;;;;;19.10;11.70;;;;;;;22.56;56.61;99174.77;105884;1277;107807;-72
2022/07/02 02:17:32;;;;;;;22.60;12.70;;;;;;;22.52;56.66;99180.17;105893;1277;97930;-72
2022/07/02 02:20:00;;;;;;;22.20;13.40;;;;;;;22.48;56.92;99180.31;105928;1277;97886;-72
2022/07/02 02:22:28;;;;;;;22.20;12.70;;;;;;;22.43;57.03;99178.36;105883;1277;111017;-71
2022/07/02 02:24:57;;;;;;;21.10;12.80;;;;;;;22.38;56.88;99184.99;105902;1277;95363;-76
2022/07/02 02:27:24;;;;;;;23.10;13.40;;;;;;;22.35;57.23;99194.31;105887;1277;107792;-73
2022/07/02 02:29:53;;;;;;;22.70;13.90;;;;;;;22.33;57.57;99204.80;105733;1278;97943;-73
2022/07/02 02:32:20;;;;;;;23.50;13.40;;;;;;;22.33;57.39;99212.72;105882;1277;95401;-74
2022/07/02 02:34:48;;;;;;;25.80;14.30;;;;;;;22.33;57.54;99217.13;105931;1277;111435;-76
2022/07/02 02:37:16;;;;;;;24.40;14.50;;;;;;;22.29;57.72;99220.05;105941;1277;97900;-73
2022/07/02 02:39:44;;;;;;;21.60;13.40;;;;;;;22.26;57.75;99218.44;105946;1277;107637;-73
2022/07/02 02:42:12;;;;;;;20.90;13.10;;;;;;;22.22;57.91;99211.27;105944;1277;97957;-73
2022/07/02 02:44:39;;;;;;;22.80;13.00;;;;;;;22.22;57.86;99209.17;105981;1278;97771;-76
2022/07/02 02:47:09;;;;;;;21.70;12.50;;;;;;;22.22;58.09;99213.12;106013;1276;111570;-74
2022/07/02 02:49:37;;;;;;;20.90;12.60;;;;;;;22.23;58.26;99214.02;105998;1277;97918;-73
2022/07/02 02:52:05;;;;;;;21.30;12.60;;;;;;;22.25;58.32;99215.34;105874;1277;107892;-73
2022/07/02 02:54:33;;;;;;;23.70;13.70;;;;;;;22.24;58.58;99215.00;105866;1277;98006;-74
2022/07/02 02:57:03;;;;;;;20.30;12.30;;;;;;;22.25;58.47;99211.17;105885;1277;95391;-73
2022/07/02 02:59:30;;;;;;;20.50;12.80;;;;;;;22.26;58.73;99202.90;106017;1277;112069;-73
2022/07/02 03:01:58;;;;;;;21.80;13.50;;;;;;;22.27;58.74;99205.33;105915;1277;97888;-72
2022/07/02 03:04:26;;;;;;;22.60;13.40;;;;;;;22.29;58.81;99203.79;105912;1277;106545;-73
2022/07/02 03:06:54;;;;;;;24.70;13.70;;;;;;;22.29;58.78;99198.37;105964;1277;98439;-74
2022/07/02 03:09:22;;;;;;;20.60;12.60;;;;;;;22.27;58.87;99193.41;106046;1277;97953;-75
2022/07/02 03:11:50;;;;;;;22.90;13.10;;;;;;;22.27;59.07;99193.23;105857;1277;111444;-74
2022/07/02 03:14:17;;;;;;;22.00;13.40;;;;;;;22.27;58.83;99191.57;105889;1277;97842;-74
2022/07/02 03:16:45;;;;;;;22.70;12.90;;;;;;;22.26;58.94;99190.43;105888;1277;107666;-75
2022/07/02 03:19:13;;;;;;;25.80;13.60;;;;;;;22.25;59.10;99190.38;105930;1278;97829;-75
2022/07/02 03:21:41;;;;;;;21.10;13.30;;;;;;;22.26;59.29;99191.39;105975;1277;97875;-75
2022/07/02 03:24:10;;;;;;;22.20;13.30;;;;;;;22.24;59.34;99195.77;105870;1277;111466;-78
2022/07/02 03:26:37;;;;;;;21.80;14.10;;;;;;;22.22;59.30;99207.58;105937;1277;95340;-75
2022/07/02 03:29:05;;;;;;;20.90;12.80;;;;;;;22.20;59.61;99206.65;105920;1277;107691;-74
2022/07/02 03:31:35;;;;;;;23.90;13.30;;;;;;;22.18;59.66;99204.98;105954;1278;97894;-74
2022/07/02 03:34:04;;;;;;;21.20;13.10;;;;;;;22.12;59.77;99211.05;105948;1278;97908;-74
2022/07/02 03:36:32;;;;;;;20.90;12.60;;;;;;;22.07;59.84;99206.73;105854;1277;110436;-74
2022/07/02 03:38:59;;;;;;;23.30;13.90;;;;;;;21.98;59.66;99208.70;105875;1277;95731;-74
2022/07/02 03:41:27;;;;;;;21.00;13.10;;;;;;;21.83;59.62;99209.98;105879;1277;107796;-74
2022/07/02 03:43:55;;;;;;;20.90;12.50;;;;;;;21.72;59.91;99202.39;105904;1277;97985;-77
2022/07/02 03:46:23;;;;;;;21.70;13.70;;;;;;;21.66;60.10;99207.20;105850;1278;204822;-74
2022/07/02 03:48:51;;;;;;;24.40;13.50;;;;;;;21.65;60.02;99201.05;105954;1277;111439;-74
2022/07/02 03:51:19;;;;;;;23.90;14.80;;;;;;;21.63;60.08;99197.13;106036;1277;95903;-74
2022/07/02 03:53:49;;;;;;;23.00;14.70;;;;;;;21.60;60.33;99199.64;105897;1278;107767;-74
2022/07/02 03:56:17;;;;;;;26.50;14.70;;;;;;;21.56;60.30;99197.88;105855;1277;95375;-75
2022/07/02 03:58:45;;;;;;;22.00;14.20;;;;;;;21.52;60.23;99201.98;105860;1277;98978;-74
2022/07/02 04:01:12;;;;;;;23.80;14.20;;;;;;;21.47;60.55;99197.52;105893;1277;111451;-74
2022/07/02 04:03:40;;;;;;;21.80;14.20;;;;;;;21.44;60.41;99202.91;105870;1277;95862;-74
2022/07/02 04:06:08;;;;;;;23.80;14.30;;;;;;;21.41;60.77;99202.36;105933;1277;107666;-74
2022/07/02 04:08:36;;;;;;;23.80;15.30;;;;;;;21.38;60.40;99205.02;106027;1278;96661;-74
2022/07/02 04:11:04;;;;;;;24.00;15.00;;;;;;;21.35;60.47;99211.16;106042;1277;96583;-74
2022/07/02 04:13:31;;;;;;;22.80;15.20;;;;;;;21.30;60.69;99216.27;105892;1277;111485;-74
2022/07/02 04:16:01;;;;;;;22.20;14.30;;;;;;;21.25;60.88;99218.58;105873;1277;97884;-73
2022/07/02 04:18:30;;;;;;;31.00;15.70;;;;;;;21.24;60.78;99225.77;105880;1277;106758;-76
2022/07/02 04:20:58;;;;;;;23.60;15.00;;;;;;;21.21;60.93;99226.41;105852;1277;97759;-73
2022/07/02 04:23:25;;;;;;;25.00;15.90;;;;;;;21.21;61.20;99222.15;105880;1277;95291;-75
2022/07/02 04:25:53;;;;;;;23.10;14.80;;;;;;;21.22;61.30;99214.98;105959;1277;112133;-75
2022/07/02 04:28:21;;;;;;;21.70;14.00;;;;;;;21.20;61.23;99215.10;105896;1277;97989;-76
2022/07/02 04:30:49;;;;;;;22.70;13.30;;;;;;;21.18;61.29;99209.73;105867;1277;107612;-75
2022/07/02 04:33:18;;;;;;;22.80;15.40;;;;;;;21.14;61.31;99207.05;105851;1277;97996;-75
2022/07/02 04:35:47;;;;;;;22.10;13.30;;;;;;;21.10;61.37;99202.23;105911;1277;98066;-75
2022/07/02 04:38:18;;;;;;;25.00;13.90;;;;;;;21.07;61.52;99201.16;105918;1277;111378;-76
2022/07/02 04:40:47;;;;;;;26.00;15.00;;;;;;;21.04;61.65;99203.75;105963;1277;97891;-74
2022/07/02 04:43:14;;;;;;;21.50;13.30;;;;;;;21.03;61.84;99205.64;106012;1277;106615;-74
2022/07/02 04:45:42;;;;;;;21.20;12.90;;;;;;;21.05;61.92;99215.84;106021;1277;97982;-74
2022/07/02 04:48:11;;;;;;;21.60;13.40;;;;;;;21.05;61.61;99219.77;105970;1277;97886;-74
2022/07/02 04:50:39;;;;;;;20.60;12.50;;;;;;;21.05;61.98;99223.38;105907;1278;111407;-73
2022/07/02 04:53:07;;;;;;;24.70;12.60;;;;;;;21.04;62.07;99223.11;105982;1277;97903;-72
2022/07/02 04:55:35;;;;;;;20.40;13.10;;;;;;;21.05;62.08;99223.20;105915;1278;108737;-73
2022/07/02 04:58:02;;;;;;;20.60;12.50;;;;;;;21.05;62.08;99231.45;105924;1278;97967;-74
2022/07/02 05:00:30;;;;;;;20.40;12.50;;;;;;;21.06;62.03;99237.20;105941;1277;97877;-75
2022/07/02 05:02:58;;;;;;;21.10;12.00;;;;;;;21.07;62.26;99244.47;105899;1277;111388;-74
2022/07/02 05:05:27;;;;;;;19.20;11.60;;;;;;;21.09;62.56;99243.10;105902;1277;96515;-74
2022/07/02 05:07:56;;;;;;;22.10;12.50;;;;;;;21.15;62.57;99250.09;105962;1277;107670;-75
2022/07/02 05:10:24;;;;;;;20.20;11.90;;;;;;;21.19;62.41;99252.87;105906;1278;97990;-76
2022/07/02 05:12:52;;;;;;;19.20;11.50;;;;;;;21.22;62.47;99254.61;105996;1277;97956;-75
2022/07/02 05:15:20;;;;;;;21.50;11.90;;;;;;;21.25;62.51;99254.49;105991;1277;111338;-75
2022/07/02 05:17:47;;;;;;;20.20;12.10;;;;;;;21.26;62.44;99259.56;106034;1277;97919;-75
2022/07/02 05:20:15;;;;;;;24.60;12.30;;;;;;;21.29;62.46;99263.84;105864;1277;107776;-76
2022/07/02 05:22:43;;;;;;;20.40;11.80;;;;;;;21.30;62.51;99268.89;105872;1277;97915;-75
2022/07/02 05:25:11;;;;;;;22.30;12.20;;;;;;;21.34;62.58;99274.78;105912;1277;97969;-74
2022/07/02 05:27:40;;;;;;;20.40;11.50;;;;;;;21.37;62.78;99276.39;105891;1278;111398;-78
2022/07/02 05:30:08;;;;;;;20.80;12.00;;;;;;;21.38;62.67;99281.11;106023;1278;95424;-78
2022/07/02 05:32:36;;;;;;;19.70;10.10;;;;;;;21.34;62.78;99284.66;106014;1278;107809;-78
2022/07/02 05:35:04;;;;;;;18.60;10.60;;;;;;;21.35;62.87;99285.13;105936;1277;97987;-79
2022/07/02 05:37:32;;;;;;;17.30;10.30;;;;;;;21.36;62.86;99288.61;105901;1278;95201;-78
2022/07/02 05:40:01;;;;;;;21.20;11.00;;;;;;;21.35;62.85;99285.30;106024;1277;111401;-74
2022/07/02 05:42:29;;;;;;;18.60;10.70;;;;;;;21.41;62.77;99285.97;105972;1277;97757;-76
2022/07/02 05:45:01;;;;;;;18.70;10.90;;;;;;;21.50;63.01;99290.80;105966;1278;107790;-77
2022/07/02 05:47:29;;;;;;;18.60;11.10;;;;;;;21.55;63.17;99291.61;106029;1277;95277;-74
2022/07/02 05:49:57;;;;;;;18.90;10.70;;;;;;;21.59;63.27;99298.09;106016;1278;97951;-78
2022/07/02 05:52:25;;;;;;;19.00;10.60;;;;;;;21.64;63.08;99295.68;105974;1277;111647;-79
2022/07/02 05:54:52;;;;;;;19.40;10.60;;;;;;;21.68;63.14;99300.48;105844;1277;95196;-77
2022/07/02 05:57:20;;;;;;;17.70;9.70;;;;;;;21.74;63.13;99306.84;105967;1278;108691;-75
2022/07/02 05:59:48;;;;;;;17.90;9.90;;;;;;;21.76;63.12;99306.11;106034;1278;98045;-75
2022/07/02 06:02:16;;;;;;;19.10;9.90;;;;;;;21.74;63.30;99303.45;105984;1277;98052;-79
2022/07/02 06:04:44;;;;;;;15.40;8.80;;;;;;;21.77;63.21;99306.11;105996;1278;112097;-80
2022/07/02 06:10:04;;;;;;;21.50;10.50;;;;;;;21.83;63.28;99320.38;105906;1277;107687;-78
2022/07/02 06:12:32;;;;;;;18.70;10.00;;;;;;;21.81;63.25;99318.83;105817;1278;98416;-71
2022/07/02 06:15:02;;;;;;;18.00;9.30;;;;;;;21.83;63.21;99321.69;105803;1277;97966;-72
2022/07/02 06:17:30;;;;;;;18.20;9.30;;;;;;;21.87;63.44;99317.23;105756;1277;111407;-73
2022/07/02 06:19:58;;;;;;;18.00;9.40;;;;;;;21.95;63.38;99309.31;105808;1277;98478;-76
2022/07/02 06:22:26;;;;;;;18.90;9.90;;;;;;;22.06;63.37;99307.33;105819;1277;107760;-70
2022/07/02 06:24:55;;;;;;;18.10;9.80;;;;;;;22.19;63.06;99307.07;105777;1277;97895;-76
2022/07/02 06:27:23;;;;;;;19.30;9.90;;;;;;;22.21;63.18;99305.14;105812;1277;97995;-75
2022/07/02 06:29:51;;;;;;;22.10;10.20;;;;;;;22.21;63.33;99309.77;105784;1277;111440;-72
2022/07/02 06:32:21;;;;;;;19.00;9.90;;;;;;;22.17;63.25;99311.07;105903;1278;97963;-76
2022/07/02 06:34:50;;;;;;;24.90;11.50;;;;;;;22.15;63.27;99317.76;105997;1277;107919;-78
2022/07/02 06:37:18;;;;;;;20.60;10.80;;;;;;;22.13;63.37;99323.05;105719;1278;97947;-77
2022/07/02 06:39:46;;;;;;;18.60;10.00;;;;;;;22.16;63.31;99321.65;105775;1277;97900;-77
2022/07/02 06:42:20;;;;;;;18.90;10.50;;;;;;;22.15;63.20;99319.43;105778;1277;111130;-78
2022/07/02 06:44:54;;;;;;;23.00;11.50;;;;;;;22.10;63.00;99320.50;105768;1278;98014;-78
2022/07/02 06:47:27;;;;;;;19.50;10.80;;;;;;;22.08;63.24;99321.90;105688;1278;105914;-78
2022/07/02 06:49:58;;;;;;;20.10;11.40;;;;;;;22.11;63.28;99328.04;105605;1278;97993;-70
2022/07/02 06:52:29;;;;;;;23.40;11.70;;;;;;;22.13;63.27;99333.86;105828;1277;97868;-78
2022/07/02 06:54:59;;;;;;;20.80;11.50;;;;;;;22.17;63.22;99337.05;105905;1278;111450;-79
2022/07/02 06:57:30;;;;;;;24.60;11.60;;;;;;;22.15;63.17;99339.29;105936;1278;97954;-81
2022/07/02 06:59:58;;;;;;;21.10;11.50;;;;;;;22.15;63.26;99341.84;105927;1279;107662;-79
2022/07/02 07:02:25;;;;;;;22.00;12.00;;;;;;;22.13;63.26;99340.64;105849;1277;97874;-78
2022/07/02 07:04:56;;;;;;;20.80;11.10;;;;;;;22.11;63.36;99339.05;105892;1277;97852;-78
2022/07/02 07:07:27;;;;;;;21.80;12.20;;;;;;;22.12;63.04;99338.58;105998;1278;111428;-80
2022/07/02 07:09:56;;;;;;;21.50;10.90;;;;;;;22.13;63.40;99354.17;105917;1277;95816;-77
2022/07/02 07:12:25;;;;;;;21.30;10.70;;;;;;;22.15;63.42;99359.88;105882;1278;106676;-76
2022/07/02 07:14:53;;;;;;;16.60;9.00;;;;;;;22.20;63.24;99356.56;105922;1278;97976;-72
2022/07/02 07:17:23;;;;;;;18.00;8.50;;;;;;;22.40;62.85;99356.75;105908;1277;98546;-74
2022/07/02 07:19:52;;;;;;;17.40;8.70;;;;;;;22.61;63.07;99363.02;105894;1277;112554;-72
2022/07/02 07:22:20;;;;;;;15.00;7.90;;;;;;;22.67;63.42;99366.30;105900;1278;97966;-72
2022/07/02 07:24:48;;;;;;;15.80;8.40;;;;;;;22.70;63.29;99362.66;105952;1277;107761;-68
2022/07/02 07:27:18;;;;;;;14.40;7.50;;;;;;;22.75;63.35;99373.64;105911;1277;97897;-66
2022/07/02 07:29:48;;;;;;;15.90;8.00;;;;;;;22.70;63.25;99376.95;105954;1278;95302;-69
2022/07/02 07:32:17;;;;;;;16.50;8.20;;;;;;;22.59;63.18;99384.42;105930;1277;112101;-67
2022/07/02 07:34:45;;;;;;;14.90;7.40;;;;;;;22.50;63.24;99391.26;105939;1278;97950;-67
2022/07/02 07:37:16;;;;;;;17.70;8.70;;;;;;;22.40;63.00;99403.57;105951;1278;108749;-65
2022/07/02 07:39:44;;;;;;;16.70;8.50;;;;;;;22.35;63.02;99402.17;105935;1278;97974;-66
2022/07/02 07:42:12;;;;;;;16.10;8.30;;;;;;;22.30;63.03;99411.41;105888;1277;98045;-63
2022/07/02 07:44:42;;;;;;;18.20;8.40;;;;;;;22.22;63.14;99418.61;105901;1277;112372;-63
2022/07/02 07:47:12;;;;;;;14.70;7.60;;;;;;;22.13;63.18;99424.60;106029;1278;95291;-65
2022/07/02 07:49:42;;;;;;;15.00;7.70;;;;;;;22.06;63.23;99427.80;105890;1278;108330;-64
2022/07/02 07:52:10;;;;;;;13.00;7.10;;;;;;;21.97;62.98;99430.20;105790;1277;97998;-63
2022/07/02 07:54:38;;;;;;;15.00;7.70;;;;;;;21.85;63.22;99428.30;105811;1277;97939;-65
2022/07/02 07:57:09;;;;;;;15.50;7.10;;;;;;;21.75;63.06;99431.27;105803;1277;112080;-67
2022/07/02 07:59:37;;;;;;;11.20;6.30;;;;;;;21.66;63.19;99431.70;105902;1277;96361;-65
2022/07/02 08:02:07;;;;;;;13.50;6.30;;;;;;;21.62;63.25;99435.98;105982;1278;108323;-69
2022/07/02 08:04:37;;;;;;;12.40;6.30;;;;;;;21.57;63.25;99439.62;106057;1277;97989;-67
2022/07/02 08:07:07;;;;;;;12.60;5.60;;;;;;;21.56;63.37;99443.30;106022;1279;95269;-66
2022/07/02 08:09:35;;;;;;;12.90;6.00;;;;;;;21.54;63.39;99444.25;105988;1279;111164;-72
2022/07/02 08:12:05;;;;;;;13.90;6.30;;;;;;;21.53;63.24;99454.04;105872;1279;96229;-70
2022/07/02 08:14:33;;;;;;;11.60;6.10;;;;;;;21.49;63.36;99457.91;105816;1279;107363;-68
2022/07/02 08:17:01;;;;;;;12.50;5.70;;;;;;;21.52;63.27;99457.59;105916;1278;97964;-70
2022/07/02 08:19:29;;;;;;;11.30;5.60;;;;;;;21.55;63.22;99457.28;105891;1279;97980;-70
2022/07/02 08:21:57;;;;;;;12.00;6.30;;;;;;;21.74;63.11;99453.39;105937;1279;111011;-69
2022/07/02 08:24:26;;;;;;;15.90;7.00;;;;;;;21.97;63.00;99450.75;105831;1279;97739;-69
2022/07/02 08:26:56;;;;;;;12.40;6.10;;;;;;;22.22;63.16;99456.29;105848;1279;107942;-69
2022/07/02 08:29:24;;;;;;;12.80;5.70;;;;;;;22.38;63.05;99456.02;105861;1279;97041;-67
2022/07/02 08:31:52;;;;;;;11.60;5.90;;;;;;;22.51;63.31;99452.50;105922;1279;95340;-69
2022/07/02 08:34:22;;;;;;;11.50;5.70;;;;;;;22.74;62.94;99455.95;105961;1279;111158;-67
2022/07/02 08:36:52;;;;;;;12.80;6.50;;;;;;;22.92;63.31;99458.63;105893;1279;98002;-66
2022/07/02 08:39:24;;;;;;;10.90;5.80;;;;;;;22.98;63.14;99463.13;105924;1279;107935;-79
2022/07/02 08:41:57;;;;;;;11.70;6.00;;;;;;;22.97;63.42;99468.66;105959;1279;97888;-76
2022/07/02 08:44:26;;;;;;;;;;;;;;;23.00;63.49;99471.02;105982;1279;95302;-70
2022/07/02 08:46:57;;;;;;;10.30;5.40;;;;;;;23.04;63.21;99474.86;105840;1278;112433;-70
2022/07/02 08:49:26;;;;;;;10.80;6.00;;;;;;;23.01;63.06;99478.73;105869;1279;97841;-69
2022/07/02 08:52:03;;;;;;;13.10;6.80;;;;;;;22.98;62.92;99487.41;105957;1279;107560;-67
2022/07/02 08:54:32;;;;;;;15.60;6.00;;;;;;;22.94;62.81;99495.81;105892;1279;95305;-67
2022/07/02 08:57:04;;;;;;;12.60;6.80;;;;;;;22.85;62.92;99497.98;105934;1279;97898;-69
2022/07/02 08:59:35;;;;;;;13.40;7.20;;;;;;;22.80;63.03;99501.02;105871;1279;112100;-68
2022/07/02 09:02:06;;;;;;;11.30;6.10;;;;;;;22.80;62.82;99504.73;105828;1279;96306;-68
2022/07/02 09:04:40;;;;;;;13.20;6.20;;;;;;;22.76;62.95;99511.80;105864;1279;108352;-68
2022/07/02 09:07:14;;;;;;;11.80;6.40;;;;;;;22.73;63.06;99515.38;105840;1279;97756;-69
2022/07/02 09:09:45;;;;;;;12.30;6.70;;;;;;;22.71;62.86;99513.81;105865;1279;97880;-66
2022/07/02 09:12:16;;;;;;;14.40;7.60;;;;;;;22.66;62.63;99520.79;106008;1278;111424;-67
2022/07/02 09:14:46;;;;;;;12.20;7.40;;;;;;;22.51;62.54;99525.52;106029;1280;97772;-67
2022/07/02 09:17:13;;;;;;;17.10;8.30;;;;;;;22.42;62.50;99532.40;105862;1278;108369;-67
2022/07/02 09:19:43;;;;;;;16.10;9.40;;;;;;;22.30;62.43;99533.19;105926;1278;97880;-67
2022/07/02 09:22:12;;;;;;;16.50;9.80;;;;;;;22.27;62.61;99537.44;105984;1278;97867;-69
2022/07/02 09:24:44;;;;;;;18.00;11.00;;;;;;;22.26;62.48;99531.14;105950;1278;112260;-66
2022/07/02 09:27:16;;;;;;;18.20;12.10;;;;;;;22.22;62.36;99534.64;105868;1277;95219;-67
2022/07/02 09:29:48;;;;;;;19.80;12.60;;;;;;;22.17;62.35;99539.74;105912;1278;107836;-67
2022/07/02 09:32:20;;;;;;;19.80;13.30;;;;;;;22.12;62.37;99540.86;105843;1278;97952;-66
2022/07/02 09:34:52;;;;;;;22.40;13.80;;;;;;;22.04;62.51;99539.23;105970;1277;97909;-67
2022/07/02 09:37:25;;;;;;;22.80;15.90;;;;;;;21.98;62.68;99539.02;105849;1279;111140;-67
2022/07/02 09:40:02;;;;;;;23.20;14.70;;;;;;;21.94;62.41;99544.10;105841;1278;97741;-68
2022/07/02 09:42:35;;;;;;;21.90;13.60;;;;;;;21.85;62.40;99552.54;105813;1277;108363;-68
2022/07/02 09:45:10;;;;;;;22.90;15.20;;;;;;;21.75;62.49;99556.55;105833;1278;97992;-66
2022/07/02 09:47:48;;;;;;;22.30;15.60;;;;;;;21.69;62.51;99556.61;105834;1278;98000;-68
2022/07/02 09:50:24;;;;;;;23.00;15.70;;;;;;;21.65;62.45;99557.84;105829;1278;111734;-67
2022/07/02 09:52:58;;;;;;;23.50;15.00;;;;;;;21.62;62.93;99555.43;105896;1279;97970;-67
2022/07/02 09:55:28;;;;;;;;;;;;;;;21.63;62.54;99554.27;105902;1279;107825;-66
2022/07/02 09:57:59;;;;;;;23.50;16.70;;;;;;;21.59;62.54;99550.20;105817;1278;96895;-68
2022/07/02 10:00:32;;;;;;;25.90;18.10;;;;;;;21.63;62.70;99545.41;105816;1279;97990;-66
2022/07/02 10:03:03;;;;;;;26.20;18.10;;;;;;;21.72;62.47;99546.02;105851;1279;111252;-65
2022/07/02 10:05:34;;;;;;;23.20;17.00;;;;;;;21.77;62.71;99548.05;105847;1278;97882;-65
2022/07/02 10:08:06;;;;;;;24.60;16.70;;;;;;;21.81;62.69;99550.77;105912;1280;108412;-65
2022/07/02 10:10:41;;;;;;;23.70;16.20;;;;;;;21.84;62.39;99547.34;105965;1279;97890;-67
2022/07/02 10:13:16;;;;;;;23.90;16.60;;;;;;;21.87;62.57;99549.36;105842;1278;99035;-64
2022/07/02 10:16:04;;;;;;;22.30;16.00;;;;;;;21.91;62.61;99556.05;105844;1279;111064;-66
2022/07/02 10:18:36;;;;;;;21.50;15.40;;;;;;;21.93;62.57;99555.78;105932;1279;95201;-67
2022/07/02 10:21:04;;;;;;;22.40;15.50;;;;;;;21.96;62.32;99552.60;105956;1279;107810;-67
2022/07/02 10:23:37;;;;;;;24.80;15.60;;;;;;;22.04;62.57;99549.61;105964;1280;97967;-66
2022/07/02 10:26:09;;;;;;;24.70;16.30;;;;;;;22.15;62.26;99550.27;105973;1279;97831;-65
2022/07/02 10:28:39;;;;;;;21.00;13.60;;;;;;;22.21;62.21;99547.24;106004;1279;111472;-65
2022/07/02 10:31:18;;;;;;;21.00;14.20;;;;;;;22.32;62.28;99547.98;105974;1279;98001;-66
2022/07/02 10:34:24;;;;;;;22.20;14.30;;;;;;;22.47;62.49;99551.73;105969;1279;107734;-65
2022/07/02 10:36:58;;;;;;;21.00;13.40;;;;;;;22.59;62.56;99548.86;106009;1279;95318;-67
2022/07/02 10:39:25;;;;;;;19.80;13.00;;;;;;;22.72;62.66;99545.24;106006;1279;97866;-66
2022/07/02 10:42:03;;;;;;;21.60;14.90;;;;;;;22.83;62.63;99546.06;105926;1278;111891;-65
2022/07/02 10:44:42;;;;;;;21.30;14.00;;;;;;;22.88;62.12;99547.98;105912;1279;96974;-65
2022/07/02 10:47:26;;;;;;;24.60;13.80;;;;;;;22.84;62.30;99545.44;105909;1278;107899;-68
2022/07/02 10:50:01;;;;;;;;;;;;;;;22.86;62.31;99543.98;105967;1280;97958;-67
2022/07/02 10:52:51;;;;;;;19.50;12.40;;;;;;;22.88;62.34;99548.70;106018;1280;98249;-66
2022/07/02 10:55:30;;;;;;;20.20;12.00;;;;;;;22.92;62.05;99546.55;106016;1280;111415;-66
2022/07/02 10:58:03;;;;;;;19.40;12.20;;;;;;;22.91;61.98;99541.56;106011;1279;97906;-66
2022/07/02 11:00:36;;;;;;;18.50;11.90;;;;;;;22.94;62.21;99543.71;105984;1279;107709;-65
2022/07/02 11:03:17;;;;;;;;;;;;;;;22.99;62.09;99549.27;106000;1280;97875;-66
2022/07/02 11:06:02;;;;;;;21.70;11.10;;;;;;;23.03;62.02;99551.59;105866;1278;97895;-64
2022/07/02 11:08:47;;;;;;;18.60;11.80;;;;;;;23.02;61.94;99551.41;105860;1278;111485;-67
2022/07/02 11:11:55;;;;;;;19.40;10.60;;;;;;;22.98;62.08;99546.13;105943;1278;97908;-65
2022/07/02 11:14:29;;;;;;;16.10;10.10;;;;;;;22.99;61.72;99550.56;106014;1279;107731;-66
2022/07/02 11:16:57;;;;;;;18.00;9.60;;;;;;;23.08;61.84;99548.44;105910;1279;98674;-66
2022/07/02 11:19:32;;;;;;;18.50;10.80;;;;;;;23.14;61.81;99552.38;105885;1279;98486;-66
2022/07/02 11:22:04;;;;;;;16.40;9.90;;;;;;;23.20;61.71;99556.28;105923;1280;111741;-68
2022/07/02 11:24:33;;;;;;;15.80;9.50;;;;;;;23.21;61.58;99552.67;105825;1279;97958;-68
2022/07/02 11:27:02;;;;;;;15.60;9.90;;;;;;;23.22;61.63;99555.36;105962;1279;107813;-67
2022/07/02 11:29:30;;;;;;;16.10;8.90;;;;;;;23.25;61.54;99561.52;105921;1279;97983;-65